Weather at Gush Katif Airport [CLOSED]

Public forecast

Using degrees Celsius for public forecast. Weather courtesy of forecast.io.

Closest aviation weather report (METAR) to Gush Katif Airport

Closest report is El Arish International Airport, 29.2 nm (54.1 km) SW.

2024/05/29 20:00 (retrieved 2 hours ago)

HEAR 292000Z 03004KT CAVOK 20/15 Q1013 NOSIG

Closest aviation forecast (TAF) to Gush Katif Airport

Forecast is more than 12 hours old.

Closest forecast is El Jora Airport, 18.8 nm (34.8 km) SSW.

2024/05/28 18:00 (retrieved 1 day ago)

TAF HEGR 281700Z 2818/2924 34008KT 9999 SCT025